Time;durP1;ratioP1;P1;durP2;ratioP2;P2;SDS_P1;SDS_P2;PMS_P1;PMS_P2;Temp;Humidity;BMP_temperature;BMP_pressure;BME280_temperature;BME280_humidity;BME280_pressure;Samples;Min_cycle;Max_cycle;Signal;HPM_P1;HPM_P2
2022/06/11 00:01:55;;;;;;;5.95;2.50;;;22.70;99.90;;;;;;5029348;28;20559;-73
2022/06/11 00:04:34;;;;;;;7.93;2.75;;;22.70;99.90;;;;;;5037703;28;20069;-72
2022/06/11 00:07:06;;;;;;;5.63;2.45;;;22.60;99.90;;;;;;5039896;28;20099;-72
2022/06/11 00:09:32;;;;;;;7.97;2.95;;;22.60;99.90;;;;;;5023338;28;20056;-71
2022/06/11 00:11:59;;;;;;;6.15;2.47;;;22.60;99.90;;;;;;5023456;28;20030;-72
2022/06/11 00:14:28;;;;;;;4.78;2.17;;;22.70;99.90;;;;;;5023195;28;20057;-73
2022/06/11 00:16:56;;;;;;;4.93;2.03;;;22.60;99.90;;;;;;5023675;28;20742;-72
2022/06/11 00:19:22;;;;;;;5.47;2.60;;;22.60;99.90;;;;;;5019301;28;20544;-71
2022/06/11 00:21:51;;;;;;;5.60;2.60;;;22.50;99.90;;;;;;5025183;28;20424;-72
2022/06/11 00:24:18;;;;;;;7.20;2.88;;;22.50;99.90;;;;;;5024729;28;20390;-72
2022/06/11 00:26:46;;;;;;;6.45;2.63;;;22.50;99.90;;;;;;5021014;28;20034;-72
2022/06/11 00:29:14;;;;;;;7.78;2.60;;;22.40;99.90;;;;;;5039325;28;20128;-72
2022/06/11 00:31:42;;;;;;;5.43;2.40;;;22.50;99.90;;;;;;5018412;28;20029;-71
2022/06/11 00:34:08;;;;;;;6.30;2.80;;;22.40;99.90;;;;;;5040789;28;20032;-71
2022/06/11 00:36:35;;;;;;;5.95;3.25;;;22.50;99.90;;;;;;5031832;28;20567;-71
2022/06/11 00:39:04;;;;;;;4.82;2.70;;;22.50;99.90;;;;;;5017419;28;20107;-72
2022/06/11 00:41:30;;;;;;;5.97;2.35;;;22.50;99.90;;;;;;5019999;28;20059;-71
2022/06/11 00:43:57;;;;;;;5.72;2.15;;;22.50;99.90;;;;;;5022847;28;20125;-72
2022/06/11 00:46:52;;;;;;;4.78;2.58;;;22.60;99.90;;;;;;5026480;28;20395;-72
2022/06/11 00:49:31;;;;;;;6.65;2.45;;;22.50;99.90;;;;;;5038393;28;20030;-72
2022/06/11 00:52:15;;;;;;;7.03;2.38;;;22.50;99.90;;;;;;5028945;28;20046;-72
2022/06/11 00:54:44;;;;;;;5.15;2.40;;;22.50;99.90;;;;;;5057244;28;20378;-72
2022/06/11 00:57:12;;;;;;;6.32;1.85;;;22.50;99.90;;;;;;5023383;28;20045;-71
2022/06/11 00:59:44;;;;;;;5.63;2.40;;;22.40;99.90;;;;;;5034387;28;20033;-72
2022/06/11 01:02:11;;;;;;;5.93;2.50;;;22.30;99.90;;;;;;5036183;28;20119;-71
2022/06/11 01:04:44;;;;;;;6.50;2.95;;;22.30;99.90;;;;;;5023611;28;20438;-71
2022/06/11 01:07:17;;;;;;;5.32;2.35;;;22.30;99.90;;;;;;5018392;28;20054;-72
2022/06/11 01:10:01;;;;;;;4.45;2.13;;;22.30;99.90;;;;;;5006934;28;20089;-71
2022/06/11 01:12:37;;;;;;;7.07;2.03;;;22.30;99.90;;;;;;5049811;28;20034;-72
2022/06/11 01:15:21;;;;;;;6.13;1.70;;;22.20;99.90;;;;;;5023809;28;20580;-72
2022/06/11 01:18:02;;;;;;;7.90;2.70;;;22.10;99.90;;;;;;5019681;28;20076;-71
2022/06/11 01:20:59;;;;;;;5.90;2.97;;;22.10;99.90;;;;;;5023516;28;20037;-72
2022/06/11 01:23:53;;;;;;;10.18;2.42;;;22.10;99.90;;;;;;5016095;28;20053;-72
2022/06/11 01:26:38;;;;;;;4.78;2.00;;;22.10;99.90;;;;;;5036053;28;20678;-71
2022/06/11 01:29:18;;;;;;;7.63;2.70;;;22.00;99.90;;;;;;5034767;28;20049;-71
2022/06/11 01:31:54;;;;;;;5.72;2.22;;;22.00;99.90;;;;;;5022161;28;20033;-72
2022/06/11 01:34:51;;;;;;;9.65;2.35;;;22.00;99.90;;;;;;5033686;28;20045;-71
2022/06/11 01:37:51;;;;;;;4.50;2.20;;;22.00;99.90;;;;;;5019967;28;20052;-71
2022/06/11 01:40:42;;;;;;;8.00;2.53;;;21.90;99.90;;;;;;5022353;28;20126;-71
2022/06/11 01:43:28;;;;;;;8.68;2.60;;;22.00;99.90;;;;;;5033554;28;20026;-71
2022/06/11 01:45:55;;;;;;;6.60;2.30;;;21.90;99.90;;;;;;5023128;28;20049;-71
2022/06/11 01:48:24;;;;;;;6.88;2.25;;;21.90;99.90;;;;;;5018451;28;20069;-72
2022/06/11 01:51:11;;;;;;;5.47;2.30;;;21.90;99.90;;;;;;5018191;28;20045;-71
2022/06/11 01:53:49;;;;;;;7.70;2.55;;;21.90;99.90;;;;;;5033463;28;20068;-71
2022/06/11 01:56:20;;;;;;;6.25;1.85;;;21.90;99.90;;;;;;5015031;28;20104;-72
2022/06/11 01:59:15;;;;;;;7.60;2.25;;;21.90;99.90;;;;;;5035412;28;20039;-71
2022/06/11 02:02:08;;;;;;;6.15;2.30;;;21.80;99.90;;;;;;5021331;28;20037;-71
2022/06/11 02:04:55;;;;;;;5.00;2.08;;;21.80;99.90;;;;;;5019195;28;20045;-71
2022/06/11 02:07:46;;;;;;;7.68;1.90;;;21.80;99.90;;;;;;5039819;28;20042;-72
2022/06/11 02:10:22;;;;;;;4.22;2.05;;;21.80;99.90;;;;;;5025891;28;20488;-72
2022/06/11 02:13:14;;;;;;;6.35;2.00;;;21.70;99.90;;;;;;5023167;28;20401;-71
2022/06/11 02:15:49;;;;;;;5.28;1.83;;;21.70;99.90;;;;;;5006880;28;20080;-72
2022/06/11 02:18:19;;;;;;;9.18;2.33;;;21.70;99.90;;;;;;5032645;28;20032;-71
2022/06/11 02:21:02;;;;;;;5.75;2.10;;;21.70;99.90;;;;;;5027504;28;20052;-73
2022/06/11 02:23:35;;;;;;;3.90;1.60;;;21.60;99.90;;;;;;5008913;28;20044;-72
2022/06/11 02:26:08;;;;;;;7.57;2.72;;;21.60;99.90;;;;;;5018862;28;20046;-72
2022/06/11 02:28:40;;;;;;;6.95;2.80;;;21.60;99.90;;;;;;4996755;28;20121;-72
2022/06/11 02:31:11;;;;;;;5.70;2.20;;;21.60;99.90;;;;;;5007629;28;20490;-72
2022/06/11 02:33:38;;;;;;;8.23;3.65;;;21.60;99.90;;;;;;5030507;28;20683;-71
2022/06/11 02:36:12;;;;;;;6.93;2.95;;;21.60;99.90;;;;;;4996411;28;20806;-72
2022/06/11 02:38:39;;;;;;;7.15;2.67;;;21.70;99.90;;;;;;5042912;28;20347;-72
2022/06/11 02:41:09;;;;;;;6.53;2.70;;;21.70;99.90;;;;;;5038919;28;20086;-71
2022/06/11 02:43:36;;;;;;;7.45;2.50;;;21.50;99.90;;;;;;5019314;28;20430;-71
2022/06/11 02:46:40;;;;;;;8.82;2.83;;;21.70;99.90;;;;;;5019922;28;20505;-70
2022/06/11 02:48:51;;;;;;;5.85;2.70;;;21.70;99.90;;;;;;5023967;28;20036;-71
2022/06/11 02:51:19;;;;;;;9.50;2.80;;;21.70;99.90;;;;;;5017725;28;20144;-72
2022/06/11 02:53:46;;;;;;;6.63;3.10;;;21.70;99.90;;;;;;5021687;28;20046;-73
2022/06/11 02:56:13;;;;;;;11.35;3.20;;;21.70;99.90;;;;;;5031388;28;20095;-72
2022/06/11 02:58:41;;;;;;;8.52;3.42;;;21.70;99.90;;;;;;5021821;28;20042;-71
2022/06/11 03:01:08;;;;;;;7.18;2.97;;;21.70;99.90;;;;;;5019151;28;20047;-72
2022/06/11 03:03:35;;;;;;;7.03;3.10;;;21.70;99.90;;;;;;5021265;28;20121;-71
2022/06/11 03:06:03;;;;;;;5.60;2.88;;;21.70;99.90;;;;;;5024181;28;20076;-71
2022/06/11 03:08:30;;;;;;;7.82;2.35;;;21.70;99.90;;;;;;5018748;28;20080;-73
2022/06/11 03:10:56;;;;;;;7.65;2.33;;;21.60;99.90;;;;;;5019705;28;20025;-72
2022/06/11 03:13:23;;;;;;;6.88;2.47;;;21.70;99.90;;;;;;5037935;28;20050;-71
2022/06/11 03:15:50;;;;;;;4.90;2.38;;;21.70;99.90;;;;;;5025283;28;20069;-71
2022/06/11 03:18:15;;;;;;;8.00;2.30;;;21.70;99.90;;;;;;5016538;28;20046;-71
2022/06/11 03:20:43;;;;;;;6.40;2.45;;;21.70;99.90;;;;;;5022501;28;20611;-72
2022/06/11 03:23:09;;;;;;;5.80;2.15;;;21.80;99.90;;;;;;5015921;28;20052;-72
2022/06/11 03:25:36;;;;;;;8.27;2.60;;;21.70;99.90;;;;;;5017846;28;20060;-71
2022/06/11 03:28:09;;;;;;;5.85;2.42;;;21.70;99.90;;;;;;5017716;28;20041;-71
2022/06/11 03:30:36;;;;;;;7.47;2.58;;;21.70;99.90;;;;;;5018030;28;20049;-72
2022/06/11 03:33:02;;;;;;;7.50;2.42;;;21.60;99.90;;;;;;5021314;28;20080;-72
2022/06/11 03:35:28;;;;;;;4.32;2.33;;;21.60;99.90;;;;;;5014521;28;20042;-72
2022/06/11 03:37:54;;;;;;;5.00;2.08;;;21.50;99.90;;;;;;5021053;28;20045;-71
2022/06/11 03:40:21;;;;;;;5.65;2.53;;;21.60;99.90;;;;;;5020145;28;20033;-72
2022/06/11 03:42:47;;;;;;;6.50;2.33;;;21.50;99.90;;;;;;5019551;28;20401;-72
2022/06/11 03:45:14;;;;;;;6.10;2.35;;;21.50;99.90;;;;;;5027582;28;20049;-71
2022/06/11 03:47:40;;;;;;;8.93;2.85;;;21.60;99.90;;;;;;5023069;28;20409;-72
2022/06/11 03:50:09;;;;;;;6.25;2.25;;;21.60;99.90;;;;;;5017806;28;20515;-71
2022/06/11 03:52:35;;;;;;;8.45;2.40;;;21.60;99.90;;;;;;5050460;28;20385;-71
2022/06/11 03:55:02;;;;;;;4.63;2.28;;;21.60;99.90;;;;;;5020579;28;20044;-72
2022/06/11 03:57:28;;;;;;;5.30;2.45;;;21.60;99.90;;;;;;5020711;28;20752;-72
2022/06/11 03:59:54;;;;;;;5.45;2.20;;;21.50;99.90;;;;;;5036229;28;20043;-72
2022/06/11 04:02:21;;;;;;;5.05;2.50;;;21.40;99.90;;;;;;5021775;28;20055;-71
2022/06/11 04:04:47;;;;;;;6.75;2.70;;;21.40;99.90;;;;;;5021528;28;20104;-72
2022/06/11 04:07:13;;;;;;;4.72;2.50;;;21.30;99.90;;;;;;5023886;28;20149;-71
2022/06/11 04:09:42;;;;;;;6.07;2.58;;;21.40;99.90;;;;;;5040190;28;20480;-71
2022/06/11 04:12:12;;;;;;;5.97;2.60;;;21.30;99.90;;;;;;5017744;28;20053;-71
2022/06/11 04:14:39;;;;;;;7.40;4.25;;;21.30;99.90;;;;;;5035817;28;20128;-71
2022/06/11 04:17:10;;;;;;;6.95;2.50;;;21.40;99.90;;;;;;5020292;28;20043;-71
2022/06/11 04:19:40;;;;;;;5.53;2.55;;;21.30;99.90;;;;;;5023330;28;20413;-71
2022/06/11 04:22:07;;;;;;;7.60;2.67;;;21.40;99.90;;;;;;5024609;28;20485;-72
2022/06/11 04:24:33;;;;;;;6.28;2.47;;;21.40;99.90;;;;;;5021587;28;20041;-72
2022/06/11 04:27:01;;;;;;;5.80;3.40;;;21.40;99.90;;;;;;5021851;28;20042;-72
2022/06/11 04:29:32;;;;;;;8.65;4.53;;;21.50;99.90;;;;;;5028109;28;20040;-71
2022/06/11 04:32:00;;;;;;;15.55;6.45;;;21.50;99.90;;;;;;5025008;28;20502;-71
2022/06/11 04:34:29;;;;;;;13.52;3.03;;;21.50;99.90;;;;;;5036836;28;20037;-72
2022/06/11 04:36:55;;;;;;;12.32;4.57;;;21.50;99.90;;;;;;5019295;28;20044;-72
2022/06/11 04:39:24;;;;;;;11.75;3.75;;;21.50;99.90;;;;;;5036350;28;20650;-71
2022/06/11 04:41:51;;;;;;;10.18;3.88;;;21.50;99.90;;;;;;5018682;28;20025;-72
2022/06/11 04:44:17;;;;;;;9.05;3.38;;;21.50;99.90;;;;;;5023489;28;20026;-73
2022/06/11 04:46:44;;;;;;;8.57;3.33;;;21.50;99.90;;;;;;5020996;28;20584;-71
2022/06/11 04:49:11;;;;;;;6.82;3.35;;;21.50;99.90;;;;;;5024141;28;20512;-72
2022/06/11 04:51:37;;;;;;;10.95;3.83;;;21.50;99.90;;;;;;5017595;28;20420;-72
2022/06/11 04:54:04;;;;;;;8.75;2.75;;;21.50;99.90;;;;;;5021508;28;20030;-71
2022/06/11 04:56:30;;;;;;;9.95;3.00;;;21.70;99.90;;;;;;5022213;28;20535;-72
2022/06/11 04:58:58;;;;;;;8.60;2.80;;;21.80;99.90;;;;;;5024013;28;20048;-71
2022/06/11 05:01:25;;;;;;;8.73;3.15;;;21.80;99.90;;;;;;5038380;28;20037;-72
2022/06/11 05:03:51;;;;;;;6.70;2.75;;;21.90;99.90;;;;;;5018762;28;20042;-73
2022/06/11 05:06:21;;;;;;;6.03;2.45;;;21.90;99.90;;;;;;5020244;28;20049;-72
2022/06/11 05:08:47;;;;;;;6.38;2.92;;;21.90;99.90;;;;;;5020241;28;20037;-71
2022/06/11 05:11:13;;;;;;;6.00;2.78;;;22.00;99.90;;;;;;5022527;28;20124;-71
2022/06/11 05:13:39;;;;;;;6.47;2.40;;;22.00;99.90;;;;;;5021525;28;20137;-70
2022/06/11 05:16:06;;;;;;;6.65;3.28;;;22.00;99.90;;;;;;5020884;28;20045;-71
2022/06/11 05:18:34;;;;;;;10.07;3.20;;;22.10;99.90;;;;;;5022685;28;20046;-73
2022/06/11 05:21:02;;;;;;;8.30;2.53;;;22.10;99.90;;;;;;5036290;28;20046;-73
2022/06/11 05:23:28;;;;;;;4.25;2.35;;;22.20;99.90;;;;;;5010687;28;20033;-72
2022/06/11 05:25:54;;;;;;;5.38;2.00;;;22.20;99.90;;;;;;5022388;28;20053;-73
2022/06/11 05:28:28;;;;;;;8.70;2.58;;;22.30;99.90;;;;;;5036596;28;20041;-71
2022/06/11 05:30:54;;;;;;;5.28;2.17;;;22.40;99.90;;;;;;5022162;28;20116;-72
2022/06/11 05:33:22;;;;;;;7.18;2.30;;;22.40;99.90;;;;;;5023405;28;20719;-72
2022/06/11 05:35:50;;;;;;;11.35;5.07;;;22.50;99.90;;;;;;5038968;28;20038;-72
2022/06/11 05:38:19;;;;;;;6.78;2.90;;;22.60;99.90;;;;;;5022302;28;20505;-73
2022/06/11 05:40:48;;;;;;;4.82;2.60;;;22.60;99.90;;;;;;5020868;28;20080;-72
2022/06/11 05:43:15;;;;;;;7.25;2.63;;;22.80;99.90;;;;;;5032990;28;20038;-71
2022/06/11 05:45:46;;;;;;;7.72;2.22;;;22.80;99.90;;;;;;5020805;28;20104;-72
2022/06/11 05:48:16;;;;;;;7.82;2.83;;;22.90;99.90;;;;;;5036214;28;20060;-72
2022/06/11 05:50:50;;;;;;;6.43;2.20;;;23.00;99.90;;;;;;5023296;28;20034;-72
2022/06/11 05:53:19;;;;;;;4.38;2.17;;;23.10;99.90;;;;;;5038082;28;20167;-73
2022/06/11 05:55:48;;;;;;;6.30;2.20;;;23.20;99.90;;;;;;5018113;28;20112;-72
2022/06/11 05:58:20;;;;;;;9.32;2.38;;;23.40;99.90;;;;;;5024701;28;20562;-72
2022/06/11 06:00:47;;;;;;;5.97;2.10;;;23.50;99.90;;;;;;5021566;28;20044;-72
2022/06/11 06:03:14;;;;;;;5.72;2.50;;;23.50;99.90;;;;;;5014962;28;20046;-71
2022/06/11 06:05:40;;;;;;;5.75;2.03;;;23.70;99.90;;;;;;5023085;28;20485;-71
2022/06/11 06:08:08;;;;;;;9.63;2.65;;;23.70;99.90;;;;;;5033045;28;20476;-71
2022/06/11 06:10:34;;;;;;;7.47;2.58;;;23.80;99.90;;;;;;5023877;28;20117;-71
2022/06/11 06:13:45;;;;;;;7.30;2.70;;;23.90;99.90;;;;;;5054239;28;20061;-71
2022/06/11 06:15:50;;;;;;;8.93;2.72;;;23.90;99.90;;;;;;5020807;28;20034;-72
2022/06/11 06:18:17;;;;;;;5.25;2.22;;;24.00;99.90;;;;;;5019525;28;20046;-71
2022/06/11 06:20:43;;;;;;;6.50;2.13;;;24.00;99.90;;;;;;5020139;28;20136;-72
2022/06/11 06:23:10;;;;;;;13.73;2.65;;;24.10;99.90;;;;;;5022367;28;20132;-72
2022/06/11 06:25:37;;;;;;;6.70;2.42;;;24.10;99.90;;;;;;5034359;28;20042;-71
2022/06/11 06:28:03;;;;;;;7.75;2.28;;;24.20;99.90;;;;;;5020016;28;20034;-71
2022/06/11 06:30:29;;;;;;;9.50;2.75;;;24.30;99.90;;;;;;5024336;28;20113;-72
2022/06/11 06:32:55;;;;;;;5.70;2.55;;;24.40;99.90;;;;;;5020498;28;20041;-71
2022/06/11 06:35:21;;;;;;;8.80;2.40;;;24.50;99.90;;;;;;5019137;28;20503;-71
2022/06/11 06:37:47;;;;;;;9.20;2.33;;;24.60;99.90;;;;;;5021065;28;20033;-71
2022/06/11 06:40:13;;;;;;;7.05;2.38;;;24.60;99.90;;;;;;5036911;28;20037;-72
2022/06/11 06:42:39;;;;;;;7.60;2.30;;;24.70;99.90;;;;;;5022079;28;20037;-72
2022/06/11 06:45:05;;;;;;;8.10;2.20;;;24.70;99.90;;;;;;5018949;28;20048;-72
2022/06/11 06:47:31;;;;;;;9.45;2.15;;;24.70;99.90;;;;;;5007679;28;20061;-72
2022/06/11 06:49:58;;;;;;;9.48;2.28;;;24.90;99.90;;;;;;5015504;28;20061;-71
2022/06/11 06:52:24;;;;;;;6.38;2.13;;;24.90;99.90;;;;;;5018601;28;20034;-71
2022/06/11 06:54:50;;;;;;;12.18;2.30;;;25.00;99.90;;;;;;5018959;28;20115;-71
2022/06/11 06:57:17;;;;;;;6.90;2.00;;;25.00;99.90;;;;;;5039722;28;20573;-72
2022/06/11 06:59:43;;;;;;;5.75;2.00;;;25.00;99.90;;;;;;5019575;28;20041;-72
2022/06/11 07:02:10;;;;;;;8.68;1.90;;;25.10;99.80;;;;;;5032932;28;20068;-71
2022/06/11 07:04:37;;;;;;;7.50;2.17;;;25.20;99.60;;;;;;5021218;28;20525;-72
2022/06/11 07:07:04;;;;;;;6.50;2.05;;;25.30;99.60;;;;;;5021571;28;20056;-71
2022/06/11 07:09:30;;;;;;;6.07;1.90;;;25.50;99.30;;;;;;5002782;28;20038;-71
2022/06/11 07:11:56;;;;;;;6.22;1.73;;;25.50;99.00;;;;;;5015919;28;20504;-73
2022/06/11 07:14:22;;;;;;;9.98;2.53;;;25.50;98.60;;;;;;5008099;28;20073;-74
2022/06/11 07:16:55;;;;;;;7.57;2.30;;;25.60;98.70;;;;;;5043833;28;20076;-74
2022/06/11 07:19:32;;;;;;;6.28;2.33;;;25.70;98.60;;;;;;5007786;28;20041;-75
2022/06/11 07:22:07;;;;;;;4.68;2.40;;;25.80;98.50;;;;;;5001071;28;20044;-73
2022/06/11 07:24:37;;;;;;;5.47;2.40;;;25.90;98.70;;;;;;5022019;28;20037;-71
2022/06/11 07:27:08;;;;;;;4.88;1.90;;;26.00;98.70;;;;;;4999771;28;20116;-73
2022/06/11 07:29:42;;;;;;;6.30;2.30;;;26.10;98.50;;;;;;4997621;28;20079;-72
2022/06/11 07:32:20;;;;;;;8.48;2.10;;;26.20;97.70;;;;;;5016584;28;20036;-72
2022/06/11 07:34:46;;;;;;;6.85;1.83;;;26.30;97.40;;;;;;5012380;28;20382;-71
2022/06/11 07:37:13;;;;;;;4.63;2.00;;;26.30;97.00;;;;;;5021659;28;20137;-72
2022/06/11 07:39:40;;;;;;;5.43;1.60;;;26.30;96.80;;;;;;5024157;28;20685;-73
2022/06/11 07:42:07;;;;;;;6.70;1.63;;;26.30;96.40;;;;;;5037706;28;20068;-72
2022/06/11 07:44:35;;;;;;;4.05;1.83;;;26.50;96.10;;;;;;5025573;28;20037;-73
2022/06/11 07:47:01;;;;;;;5.78;1.40;;;26.60;95.80;;;;;;5040229;28;20173;-72
2022/06/11 07:49:28;;;;;;;3.33;1.50;;;26.60;94.90;;;;;;5021749;28;20038;-73
2022/06/11 07:51:54;;;;;;;2.53;1.27;;;26.70;94.70;;;;;;5025714;28;20128;-73
2022/06/11 07:54:20;;;;;;;6.63;1.40;;;26.70;94.70;;;;;;5033694;28;20034;-73
2022/06/11 07:56:47;;;;;;;4.43;1.70;;;26.70;94.70;;;;;;5023653;28;20037;-73
2022/06/11 07:59:13;;;;;;;6.53;1.63;;;26.80;94.80;;;;;;5022189;28;20072;-72
2022/06/11 08:01:39;;;;;;;8.85;1.90;;;26.90;95.00;;;;;;5043679;28;20053;-72
2022/06/11 08:04:05;;;;;;;6.80;1.83;;;26.90;95.30;;;;;;5039060;28;20045;-71
2022/06/11 08:06:31;;;;;;;8.65;1.85;;;26.80;95.20;;;;;;5023272;28;20045;-72
2022/06/11 08:08:58;;;;;;;6.07;1.90;;;26.80;95.30;;;;;;5026053;28;20040;-73
2022/06/11 08:11:24;;;;;;;7.32;2.45;;;26.90;95.30;;;;;;5022199;28;20057;-72
2022/06/11 08:13:50;;;;;;;3.50;1.50;;;26.90;95.20;;;;;;5026719;28;20558;-72
2022/06/11 08:16:17;;;;;;;4.30;1.77;;;27.00;95.20;;;;;;5022046;28;20033;-74
2022/06/11 08:18:44;;;;;;;7.22;1.85;;;27.10;95.00;;;;;;5021061;28;20101;-73
2022/06/11 08:21:10;;;;;;;5.53;1.85;;;27.00;94.70;;;;;;5021972;28;20034;-73
2022/06/11 08:23:36;;;;;;;10.43;3.50;;;27.10;94.80;;;;;;5022548;28;20029;-72
2022/06/11 08:26:03;;;;;;;6.00;1.83;;;27.00;95.00;;;;;;5025954;28;20459;-73
2022/06/11 08:28:30;;;;;;;6.00;1.88;;;27.10;95.10;;;;;;5026448;28;20033;-73
2022/06/11 08:30:56;;;;;;;5.70;1.92;;;27.00;95.20;;;;;;5024097;28;20536;-73
2022/06/11 08:33:22;;;;;;;7.53;1.80;;;27.10;95.00;;;;;;5024979;28;20186;-73
2022/06/11 08:35:48;;;;;;;6.88;1.60;;;27.10;94.90;;;;;;5036005;28;20838;-72
2022/06/11 08:38:14;;;;;;;7.65;1.85;;;27.00;95.00;;;;;;5033703;28;20041;-72
2022/06/11 08:40:45;;;;;;;8.38;1.90;;;27.20;94.90;;;;;;5022003;28;20493;-72
2022/06/11 08:43:14;;;;;;;8.68;2.15;;;27.20;94.20;;;;;;5033309;28;20025;-73
2022/06/11 08:46:00;;;;;;;7.85;1.60;;;27.10;94.10;;;;;;5023728;28;20141;-73
2022/06/11 08:48:51;;;;;;;7.78;2.80;;;27.10;94.20;;;;;;5023426;28;20049;-73
2022/06/11 08:51:35;;;;;;;5.00;1.67;;;27.40;94.10;;;;;;5023713;28;20065;-74
2022/06/11 08:54:25;;;;;;;4.85;1.52;;;27.50;94.00;;;;;;5049215;28;20053;-72
2022/06/11 08:57:23;;;;;;;5.07;1.63;;;27.70;93.90;;;;;;5022872;28;20090;-74
2022/06/11 08:59:58;;;;;;;5.72;1.70;;;27.90;93.60;;;;;;5033614;28;20117;-73
2022/06/11 09:02:56;;;;;;;5.68;2.03;;;27.60;93.50;;;;;;5017072;28;20046;-72
2022/06/11 09:05:44;;;;;;;4.57;1.75;;;27.50;93.80;;;;;;5018412;28;20035;-72
2022/06/11 09:08:53;;;;;;;5.88;1.77;;;27.60;93.70;;;;;;5025666;28;20040;-73
2022/06/11 09:11:46;;;;;;;4.65;1.40;;;27.60;93.60;;;;;;5027614;28;20128;-72
2022/06/11 09:14:31;;;;;;;3.60;1.80;;;27.60;93.40;;;;;;5023370;28;20046;-73
2022/06/11 09:17:23;;;;;;;5.15;1.77;;;27.70;93.30;;;;;;5018883;28;20462;-72
2022/06/11 09:20:26;;;;;;;5.78;1.90;;;27.70;93.50;;;;;;5001666;28;20045;-72
2022/06/11 09:23:24;;;;;;;5.10;1.60;;;27.90;93.50;;;;;;5020515;28;20136;-72
2022/06/11 09:26:17;;;;;;;7.65;1.80;;;27.90;93.50;;;;;;5011582;28;20037;-71
2022/06/11 09:29:08;;;;;;;5.20;1.73;;;28.10;93.50;;;;;;5044183;28;20061;-72
2022/06/11 09:31:49;;;;;;;2.70;1.20;;;28.30;93.00;;;;;;5003317;28;20484;-73
2022/06/11 09:34:30;;;;;;;4.13;1.63;;;28.50;92.50;;;;;;5021364;28;20036;-72
2022/06/11 09:37:16;;;;;;;3.65;1.30;;;28.60;92.40;;;;;;5026336;28;20050;-73
2022/06/11 09:40:20;;;;;;;4.28;1.40;;;28.10;92.30;;;;;;5022784;28;20515;-73
2022/06/11 09:43:20;;;;;;;3.78;1.30;;;27.80;92.60;;;;;;5012398;28;20033;-72
2022/06/11 09:46:13;;;;;;;7.03;2.47;;;27.90;92.70;;;;;;5013898;28;20461;-73
2022/06/11 09:48:51;;;;;;;3.25;1.40;;;28.30;92.40;;;;;;5052574;28;20041;-73
2022/06/11 09:51:43;;;;;;;3.15;1.13;;;28.20;92.20;;;;;;5051000;28;20045;-72
2022/06/11 09:54:19;;;;;;;4.07;1.50;;;28.10;92.10;;;;;;5031263;28;20607;-72
2022/06/11 09:56:57;;;;;;;5.35;1.95;;;28.10;92.20;;;;;;5037014;28;20124;-72
2022/06/11 09:59:32;;;;;;;2.97;1.38;;;27.90;92.30;;;;;;5036081;28;20091;-73
2022/06/11 10:02:09;;;;;;;7.53;1.70;;;28.00;92.20;;;;;;5020519;28;20120;-72
2022/06/11 10:04:42;;;;;;;7.22;1.50;;;28.20;92.10;;;;;;5021964;28;20056;-73
2022/06/11 10:07:20;;;;;;;5.47;1.83;;;28.30;92.00;;;;;;5038554;28;20033;-73
2022/06/11 10:10:01;;;;;;;6.47;1.70;;;28.30;92.00;;;;;;5039117;28;20033;-72
2022/06/11 10:12:45;;;;;;;4.40;1.90;;;28.50;92.00;;;;;;5035319;28;20489;-73
2022/06/11 10:15:18;;;;;;;4.75;1.58;;;28.60;92.10;;;;;;5019622;28;20029;-72
2022/06/11 10:18:02;;;;;;;6.15;1.67;;;28.70;91.80;;;;;;5043727;28;20376;-72
2022/06/11 10:20:32;;;;;;;6.05;2.03;;;28.90;91.70;;;;;;5023185;28;20037;-72
2022/06/11 10:23:12;;;;;;;5.30;1.70;;;29.30;91.70;;;;;;5031598;28;20045;-72
2022/06/11 10:25:53;;;;;;;7.53;1.80;;;28.90;91.80;;;;;;5022803;28;20037;-73
2022/06/11 10:28:38;;;;;;;5.97;3.10;;;29.00;91.70;;;;;;5037598;28;20041;-72
2022/06/11 10:31:23;;;;;;;4.50;1.70;;;29.30;91.60;;;;;;5030469;28;20095;-74
2022/06/11 10:34:10;;;;;;;7.00;1.88;;;29.30;91.20;;;;;;5052946;28;20153;-73
2022/06/11 10:36:50;;;;;;;8.15;1.90;;;29.50;91.10;;;;;;5020130;28;20041;-72
2022/06/11 10:39:37;;;;;;;5.05;1.73;;;29.40;91.20;;;;;;5020952;28;20029;-73
2022/06/11 10:42:40;;;;;;;7.88;2.22;;;29.70;91.30;;;;;;5034185;28;20125;-73
2022/06/11 10:45:12;;;;;;;6.88;1.80;;;29.60;90.90;;;;;;5019015;28;20050;-72
2022/06/11 10:47:43;;;;;;;5.55;1.80;;;29.50;90.90;;;;;;5051915;28;20030;-73
2022/06/11 10:50:09;;;;;;;6.13;1.90;;;29.70;91.10;;;;;;5020711;28;20062;-72
2022/06/11 10:53:07;;;;;;;5.00;2.00;;;29.40;91.10;;;;;;5036397;28;20041;-72
2022/06/11 10:55:49;;;;;;;5.60;2.08;;;29.50;91.10;;;;;;5020425;28;20378;-72
2022/06/11 10:58:34;;;;;;;4.65;1.95;;;29.70;91.10;;;;;;5021627;28;20402;-73
2022/06/11 11:01:31;;;;;;;7.07;2.10;;;29.70;91.10;;;;;;5020320;28;20029;-73
2022/06/11 11:04:17;;;;;;;8.40;2.10;;;29.90;90.80;;;;;;5025418;28;20484;-73
2022/06/11 11:06:44;;;;;;;3.47;1.55;;;29.90;90.90;;;;;;5020378;28;20161;-73
2022/06/11 11:09:21;;;;;;;7.65;2.30;;;29.80;91.00;;;;;;5040258;28;20057;-72
2022/06/11 11:12:00;;;;;;;8.05;2.10;;;30.10;91.20;;;;;;5026614;28;20038;-72
2022/06/11 11:14:39;;;;;;;5.53;1.85;;;30.70;90.90;;;;;;5024210;28;20515;-72
2022/06/11 11:17:19;;;;;;;6.40;1.67;;;31.00;90.50;;;;;;5023471;28;20133;-74
2022/06/11 11:23:00;;;;;;;5.63;1.60;;;30.20;89.70;;;;;;5022369;28;20091;-73
2022/06/11 11:25:38;;;;;;;6.80;1.40;;;30.30;89.40;;;;;;5052651;28;20042;-72
2022/06/11 11:28:05;;;;;;;3.13;1.30;;;30.10;88.20;;;;;;5023428;28;20551;-73
2022/06/11 11:30:36;;;;;;;2.53;1.25;;;29.70;88.50;;;;;;5026200;28;20038;-75
2022/06/11 11:33:27;;;;;;;5.10;2.03;;;29.70;88.50;;;;;;5036246;28;20049;-73
2022/06/11 11:36:25;;;;;;;7.50;1.60;;;30.10;88.80;;;;;;5053702;28;20042;-74
2022/06/11 11:39:15;;;;;;;3.15;1.50;;;30.20;89.90;;;;;;5033162;28;20070;-73
2022/06/11 11:42:01;;;;;;;6.97;2.00;;;30.40;90.00;;;;;;5024616;28;20394;-74
2022/06/11 11:44:27;;;;;;;7.38;2.00;;;30.70;90.00;;;;;;5036821;28;20056;-72
2022/06/11 11:46:59;;;;;;;5.05;1.85;;;31.30;89.50;;;;;;5028801;28;20502;-72
2022/06/11 11:49:29;;;;;;;7.32;1.92;;;31.30;89.60;;;;;;5053664;28;22550;-72
2022/06/11 11:52:12;;;;;;;7.97;2.20;;;30.60;90.20;;;;;;5023242;28;20107;-72
2022/06/11 11:54:47;;;;;;;10.70;2.30;;;30.80;90.60;;;;;;5020067;28;20045;-72
2022/06/11 11:57:15;;;;;;;6.25;2.13;;;31.10;90.70;;;;;;5019543;28;20041;-73
2022/06/11 11:59:44;;;;;;;4.63;1.63;;;30.80;91.00;;;;;;5024471;28;20377;-72
2022/06/11 12:02:46;;;;;;;5.30;1.70;;;30.60;91.30;;;;;;5021546;28;20061;-71
2022/06/11 12:05:19;;;;;;;;;;;30.90;91.50;;;;;;5052567;28;20034;-73
2022/06/11 12:07:47;;;;;;;6.57;2.20;;;31.20;91.30;;;;;;5053293;28;19921;-72
2022/06/11 12:10:36;;;;;;;5.43;2.03;;;31.10;91.40;;;;;;5021523;28;20397;-73
2022/06/11 12:13:03;;;;;;;7.03;1.90;;;31.20;91.60;;;;;;5035849;28;20064;-72
2022/06/11 12:15:33;;;;;;;6.25;2.05;;;31.40;91.40;;;;;;5022020;28;20139;-72
2022/06/11 12:18:15;;;;;;;5.18;2.25;;;31.50;91.80;;;;;;5025759;28;20069;-73
2022/06/11 12:20:48;;;;;;;5.05;2.22;;;31.20;91.80;;;;;;5024540;28;20101;-73
2022/06/11 12:23:14;;;;;;;4.80;2.00;;;31.10;92.00;;;;;;5021347;28;20116;-72
2022/06/11 12:25:51;;;;;;;5.10;1.98;;;31.10;92.00;;;;;;5027726;28;20040;-73
2022/06/11 12:28:22;;;;;;;5.05;1.92;;;31.60;91.70;;;;;;5022639;28;20068;-72
2022/06/11 12:30:49;;;;;;;5.55;1.83;;;31.70;91.60;;;;;;5020592;28;20052;-72
2022/06/11 12:33:18;;;;;;;7.78;1.88;;;32.00;91.30;;;;;;5019007;28;20069;-72
2022/06/11 12:36:05;;;;;;;7.28;1.90;;;32.10;91.40;;;;;;5034638;28;20030;-74
2022/06/11 12:39:00;;;;;;;4.40;1.60;;;32.30;90.80;;;;;;5023268;28;20064;-72
2022/06/11 12:41:54;;;;;;;6.22;2.17;;;31.70;90.80;;;;;;5025761;28;20706;-72
2022/06/11 12:44:44;;;;;;;6.13;1.92;;;31.90;90.70;;;;;;5026608;28;20061;-73
2022/06/11 12:47:28;;;;;;;12.88;2.08;;;31.70;90.90;;;;;;5013921;28;20056;-72
2022/06/11 12:50:13;;;;;;;7.32;1.77;;;32.30;90.60;;;;;;5027409;28;20536;-72
2022/06/11 12:53:20;;;;;;;5.40;1.75;;;31.80;91.30;;;;;;5019690;28;20111;-73
2022/06/11 12:55:49;;;;;;;7.47;2.00;;;31.70;91.70;;;;;;5018548;28;20033;-74
2022/06/11 12:58:38;;;;;;;4.68;1.90;;;32.10;91.60;;;;;;5039050;28;20044;-72
2022/06/11 13:01:13;;;;;;;6.38;1.70;;;32.50;90.70;;;;;;5032035;28;20506;-71
2022/06/11 13:04:23;;;;;;;6.80;1.80;;;32.10;91.00;;;;;;5021242;28;20045;-73
2022/06/11 13:07:11;;;;;;;5.55;2.15;;;33.10;91.30;;;;;;5021472;28;20061;-72
2022/06/11 13:10:14;;;;;;;5.45;1.70;;;32.30;90.90;;;;;;5053346;28;20037;-72
2022/06/11 13:13:03;;;;;;;5.55;1.63;;;31.70;91.40;;;;;;5036163;28;20034;-74
2022/06/11 13:15:29;;;;;;;9.40;1.60;;;31.60;91.20;;;;;;5019634;28;20099;-71
2022/06/11 13:18:01;;;;;;;8.38;1.88;;;32.30;91.10;;;;;;5023685;28;20037;-72
2022/06/11 13:20:30;;;;;;;9.70;1.75;;;33.00;90.60;;;;;;5024499;28;20121;-72
2022/06/11 13:23:06;;;;;;;4.57;1.70;;;32.40;90.20;;;;;;5021262;28;20041;-73
2022/06/11 13:25:34;;;;;;;3.95;1.30;;;32.90;89.70;;;;;;5055025;28;20061;-72